Time;durP1;ratioP1;P1;durP2;ratioP2;P2;SDS_P1;SDS_P2;PMS_P1;PMS_P2;Temp;Humidity;BMP_temperature;BMP_pressure;BME280_temperature;BME280_humidity;BME280_pressure;Samples;Min_cycle;Max_cycle;Signal;HPM_P1;HPM_P2
2022/04/10 00:00:39;;;;;;;0.00;0.00;;;;;;;;;;5000511;28;20608;-79
2022/04/10 00:03:05;;;;;;;0.00;0.00;;;;;;;;;;5000450;28;20097;-79
2022/04/10 00:05:31;;;;;;;0.10;0.10;;;;;;;;;;5001173;28;20049;-79
2022/04/10 00:07:57;;;;;;;6.25;0.93;;;;;;;;;;5002667;28;20097;-79
2022/04/10 00:10:23;;;;;;;0.00;0.00;;;;;;;;;;5002714;28;20034;-79
2022/04/10 00:12:49;;;;;;;0.10;0.10;;;;;;;;;;5001002;28;20422;-79
2022/04/10 00:15:15;;;;;;;0.00;0.00;;;;;;;;;;5000719;28;20506;-79
2022/04/10 00:17:41;;;;;;;0.00;0.00;;;;;;;;;;5000922;28;20026;-79
2022/04/10 00:20:09;;;;;;;0.00;0.00;;;;;;;;;;4985573;28;20026;-79
2022/04/10 00:22:45;;;;;;;0.05;0.05;;;;;;;;;;5000005;28;20031;-79
2022/04/10 00:25:12;;;;;;;0.10;0.10;;;;;;;;;;5002835;28;20045;-79
2022/04/10 00:27:39;;;;;;;0.00;0.00;;;;;;;;;;5000211;28;20092;-79
2022/04/10 00:30:06;;;;;;;2.08;0.70;;;;;;;;;;5000244;28;20084;-79
2022/04/10 00:32:32;;;;;;;0.20;0.20;;;;;;;;;;5000056;28;20120;-79
2022/04/10 00:34:58;;;;;;;0.10;0.10;;;;;;;;;;5001512;28;20156;-79
2022/04/10 00:37:25;;;;;;;0.00;0.00;;;;;;;;;;5002449;28;20029;-79
2022/04/10 00:39:51;;;;;;;0.00;0.00;;;;;;;;;;5000037;28;20040;-79
2022/04/10 00:42:17;;;;;;;0.00;0.00;;;;;;;;;;5033692;28;20030;-79
2022/04/10 00:44:43;;;;;;;0.45;0.45;;;;;;;;;;5001729;28;20560;-79
2022/04/10 00:47:10;;;;;;;0.28;0.28;;;;;;;;;;5001089;28;20026;-79
2022/04/10 00:49:36;;;;;;;0.10;0.10;;;;;;;;;;4999600;28;20706;-79
2022/04/10 00:52:03;;;;;;;0.43;0.43;;;;;;;;;;5000644;28;20041;-78
2022/04/10 00:54:30;;;;;;;0.47;0.32;;;;;;;;;;5000133;28;20034;-79
2022/04/10 00:56:57;;;;;;;0.10;0.10;;;;;;;;;;5000060;28;20791;-78
2022/04/10 00:59:23;;;;;;;0.00;0.00;;;;;;;;;;5000652;28;20026;-79
2022/04/10 01:01:50;;;;;;;0.10;0.10;;;;;;;;;;5002407;28;20033;-78
2022/04/10 01:04:16;;;;;;;0.00;0.00;;;;;;;;;;5034956;28;20439;-79
2022/04/10 01:06:47;;;;;;;0.30;0.30;;;;;;;;;;5002138;28;20025;-79
2022/04/10 01:09:13;;;;;;;0.10;0.10;;;;;;;;;;5003799;28;20277;-78
2022/04/10 01:11:40;;;;;;;0.10;0.10;;;;;;;;;;5004634;28;20042;-79
2022/04/10 01:14:06;;;;;;;0.00;0.00;;;;;;;;;;5004870;28;20494;-79
2022/04/10 01:16:32;;;;;;;0.10;0.10;;;;;;;;;;5006962;28;20265;-79
2022/04/10 01:18:58;;;;;;;0.10;0.10;;;;;;;;;;5035610;28;20338;-80
2022/04/10 01:21:26;;;;;;;0.00;0.00;;;;;;;;;;5004573;28;20029;-79
2022/04/10 01:23:53;;;;;;;0.10;0.10;;;;;;;;;;5004038;28;20550;-79
2022/04/10 01:26:19;;;;;;;0.00;0.00;;;;;;;;;;5003946;28;20042;-78
2022/04/10 01:29:04;;;;;;;0.23;0.23;;;;;;;;;;5006039;28;20017;-79
2022/04/10 01:31:31;;;;;;;0.00;0.00;;;;;;;;;;5005838;28;20034;-79
2022/04/10 01:33:58;;;;;;;0.00;0.00;;;;;;;;;;5034902;28;20030;-79
2022/04/10 01:36:25;;;;;;;0.00;0.00;;;;;;;;;;5003126;28;20513;-79
2022/04/10 01:38:53;;;;;;;0.00;0.00;;;;;;;;;;5003285;28;20029;-79
2022/04/10 01:41:20;;;;;;;0.00;0.00;;;;;;;;;;5003171;28;20043;-78
2022/04/10 01:43:47;;;;;;;0.00;0.00;;;;;;;;;;5005225;28;20112;-79
2022/04/10 01:46:13;;;;;;;0.10;0.10;;;;;;;;;;5003868;28;20165;-79
2022/04/10 01:48:39;;;;;;;0.30;0.20;;;;;;;;;;5003189;28;20034;-79
2022/04/10 01:51:05;;;;;;;0.00;0.00;;;;;;;;;;5003179;28;20565;-79
2022/04/10 01:53:31;;;;;;;0.13;0.13;;;;;;;;;;5003843;28;20033;-79
2022/04/10 01:55:57;;;;;;;0.40;0.40;;;;;;;;;;5004889;28;20030;-79
2022/04/10 01:58:23;;;;;;;2.10;1.20;;;;;;;;;;5004762;28;20065;-80
2022/04/10 02:00:52;;;;;;;0.70;0.60;;;;;;;;;;5002619;28;20069;-80
2022/04/10 02:03:18;;;;;;;0.30;0.30;;;;;;;;;;5034493;28;20136;-80
2022/04/10 02:05:44;;;;;;;0.10;0.10;;;;;;;;;;5002701;28;20048;-80
2022/04/10 02:08:10;;;;;;;0.30;0.30;;;;;;;;;;5002942;28;20386;-79
2022/04/10 02:10:36;;;;;;;0.03;0.03;;;;;;;;;;5006304;28;20034;-80
2022/04/10 02:13:03;;;;;;;0.03;0.03;;;;;;;;;;5002448;28;20331;-79
2022/04/10 02:15:29;;;;;;;0.10;0.10;;;;;;;;;;5001551;28;20117;-80
2022/04/10 02:17:55;;;;;;;0.00;0.00;;;;;;;;;;5000548;28;20407;-80
2022/04/10 02:20:21;;;;;;;0.03;0.03;;;;;;;;;;5000522;28;20034;-80
2022/04/10 02:22:47;;;;;;;0.00;0.00;;;;;;;;;;5003382;28;20061;-79
2022/04/10 02:25:13;;;;;;;0.00;0.00;;;;;;;;;;5010254;28;20456;-79
2022/04/10 02:27:39;;;;;;;0.20;0.20;;;;;;;;;;5008271;28;20030;-79
2022/04/10 02:30:06;;;;;;;0.10;0.10;;;;;;;;;;5005621;28;20040;-79
2022/04/10 02:32:32;;;;;;;;;;;;;;;;;;5003475;28;20032;-79
2022/04/10 02:34:58;;;;;;;0.10;0.10;;;;;;;;;;5003779;28;19909;-79
2022/04/10 02:37:24;;;;;;;0.05;0.05;;;;;;;;;;5002950;28;20037;-78
2022/04/10 02:39:50;;;;;;;0.08;0.08;;;;;;;;;;5002004;28;20026;-79
2022/04/10 02:42:16;;;;;;;0.08;0.08;;;;;;;;;;5005190;28;20128;-78
2022/04/10 02:44:42;;;;;;;0.10;0.10;;;;;;;;;;5001424;28;20519;-78
2022/04/10 02:47:08;;;;;;;0.00;0.00;;;;;;;;;;5002249;28;20034;-78
2022/04/10 02:49:34;;;;;;;0.20;0.20;;;;;;;;;;5005121;28;20109;-79
2022/04/10 02:52:00;;;;;;;0.10;0.10;;;;;;;;;;5001489;28;20160;-79
2022/04/10 02:54:26;;;;;;;0.30;0.30;;;;;;;;;;5002078;28;20429;-80
2022/04/10 02:56:52;;;;;;;0.43;0.40;;;;;;;;;;5033588;28;20017;-79
2022/04/10 02:59:18;;;;;;;0.10;0.10;;;;;;;;;;5007737;28;20277;-79
2022/04/10 03:01:44;;;;;;;0.03;0.03;;;;;;;;;;5004454;28;20490;-79
2022/04/10 03:04:10;;;;;;;0.17;0.17;;;;;;;;;;5002326;28;20134;-79
2022/04/10 03:06:36;;;;;;;0.17;0.17;;;;;;;;;;5001950;28;20030;-79
2022/04/10 03:09:02;;;;;;;0.10;0.10;;;;;;;;;;5001914;28;20030;-79
2022/04/10 03:11:28;;;;;;;0.10;0.10;;;;;;;;;;5033478;28;20038;-78
2022/04/10 03:13:54;;;;;;;0.00;0.00;;;;;;;;;;5001737;28;20072;-80
2022/04/10 03:16:20;;;;;;;0.10;0.10;;;;;;;;;;5001407;28;20034;-80
2022/04/10 03:18:46;;;;;;;0.15;0.15;;;;;;;;;;4999792;28;20037;-80
2022/04/10 03:21:12;;;;;;;0.13;0.13;;;;;;;;;;5000005;28;20026;-80
2022/04/10 03:23:39;;;;;;;0.93;0.93;;;;;;;;;;5001232;28;20099;-80
2022/04/10 03:26:05;;;;;;;0.10;0.10;;;;;;;;;;5001295;28;20396;-80
2022/04/10 03:28:31;;;;;;;0.20;0.20;;;;;;;;;;5003624;28;20030;-80
2022/04/10 03:30:59;;;;;;;6.90;1.20;;;;;;;;;;5032662;28;20030;-79
2022/04/10 03:33:25;;;;;;;0.40;0.40;;;;;;;;;;5003279;28;20142;-79
2022/04/10 03:35:52;;;;;;;0.10;0.10;;;;;;;;;;5032703;28;20034;-80
2022/04/10 03:38:18;;;;;;;0.10;0.10;;;;;;;;;;5032423;28;20022;-78
2022/04/10 03:40:44;;;;;;;0.10;0.10;;;;;;;;;;5003288;28;20037;-79
2022/04/10 03:43:13;;;;;;;0.22;0.22;;;;;;;;;;5002143;28;20032;-79
2022/04/10 03:45:39;;;;;;;0.10;0.10;;;;;;;;;;5000718;28;20061;-79
2022/04/10 03:48:06;;;;;;;0.77;0.77;;;;;;;;;;5000701;28;20120;-79
2022/04/10 03:50:33;;;;;;;;;;;;;;;;;;5001160;28;20815;-79
2022/04/10 03:53:00;;;;;;;0.10;0.10;;;;;;;;;;5002437;28;19924;-78
2022/04/10 03:55:26;;;;;;;0.15;0.15;;;;;;;;;;5002282;28;20028;-78
2022/04/10 03:57:52;;;;;;;0.60;0.60;;;;;;;;;;5000540;28;20038;-78
2022/04/10 04:00:21;;;;;;;5.72;1.65;;;;;;;;;;5000671;28;20029;-78
2022/04/10 04:02:47;;;;;;;0.05;0.05;;;;;;;;;;5000592;28;20026;-78
2022/04/10 04:05:13;;;;;;;0.10;0.10;;;;;;;;;;5000794;28;20121;-78
2022/04/10 04:07:40;;;;;;;0.03;0.03;;;;;;;;;;5003990;28;20026;-78
2022/04/10 04:10:07;;;;;;;0.10;0.10;;;;;;;;;;5002107;28;20104;-78
2022/04/10 04:12:34;;;;;;;0.10;0.10;;;;;;;;;;5000887;28;20034;-78
2022/04/10 04:15:00;;;;;;;0.10;0.10;;;;;;;;;;5000477;28;20133;-78
2022/04/10 04:17:26;;;;;;;0.13;0.13;;;;;;;;;;5000649;28;20038;-78
2022/04/10 04:19:53;;;;;;;1.17;1.17;;;;;;;;;;5002734;28;20033;-78
2022/04/10 04:22:19;;;;;;;;;;;;;;;;;;5002567;28;20172;-78
2022/04/10 04:24:45;;;;;;;0.73;0.57;;;;;;;;;;5000152;28;20028;-78
2022/04/10 04:27:11;;;;;;;0.10;0.10;;;;;;;;;;5000548;28;20074;-78
2022/04/10 04:29:37;;;;;;;0.10;0.10;;;;;;;;;;5031852;28;20840;-78
2022/04/10 04:32:04;;;;;;;0.10;0.10;;;;;;;;;;5001138;28;20285;-79
2022/04/10 04:34:30;;;;;;;0.00;0.00;;;;;;;;;;5004555;28;20030;-78
2022/04/10 04:36:56;;;;;;;0.30;0.30;;;;;;;;;;5000406;28;20060;-78
2022/04/10 04:39:22;;;;;;;0.60;0.60;;;;;;;;;;5000312;28;20064;-81
2022/04/10 04:41:48;;;;;;;0.10;0.10;;;;;;;;;;5000227;28;20926;-81
2022/04/10 04:44:14;;;;;;;0.10;0.10;;;;;;;;;;4999998;28;20522;-80
2022/04/10 04:46:40;;;;;;;0.10;0.10;;;;;;;;;;5003691;28;20068;-81
2022/04/10 04:49:06;;;;;;;0.10;0.10;;;;;;;;;;5001890;28;20499;-80
2022/04/10 04:51:36;;;;;;;0.10;0.10;;;;;;;;;;4999871;28;20034;-81
2022/04/10 04:54:08;;;;;;;0.20;0.20;;;;;;;;;;4999558;28;20036;-79
2022/04/10 04:56:34;;;;;;;0.10;0.10;;;;;;;;;;5000198;28;20030;-78
2022/04/10 04:59:00;;;;;;;0.57;0.57;;;;;;;;;;5000864;28;20859;-78
2022/04/10 05:01:26;;;;;;;0.10;0.10;;;;;;;;;;5002179;28;20113;-79
2022/04/10 05:03:53;;;;;;;0.10;0.10;;;;;;;;;;4999356;28;20032;-78
2022/04/10 05:06:19;;;;;;;0.10;0.10;;;;;;;;;;4999980;28;20096;-79
2022/04/10 05:08:48;;;;;;;0.10;0.10;;;;;;;;;;4999459;28;20034;-78
2022/04/10 05:11:15;;;;;;;1.73;1.38;;;;;;;;;;5031506;28;20034;-78
2022/04/10 05:13:41;;;;;;;0.20;0.20;;;;;;;;;;5003079;28;20034;-78
2022/04/10 05:16:07;;;;;;;0.13;0.13;;;;;;;;;;4999878;28;20034;-78
2022/04/10 05:18:33;;;;;;;0.10;0.10;;;;;;;;;;5001545;28;20022;-78
2022/04/10 05:20:59;;;;;;;0.10;0.10;;;;;;;;;;4999797;28;20042;-78
2022/04/10 05:23:25;;;;;;;3.03;0.98;;;;;;;;;;5000217;28;20026;-79
2022/04/10 05:25:52;;;;;;;0.15;0.15;;;;;;;;;;5002793;28;20080;-78
2022/04/10 05:28:18;;;;;;;0.20;0.20;;;;;;;;;;5001030;28;20512;-78
2022/04/10 05:30:44;;;;;;;0.10;0.10;;;;;;;;;;4999731;28;20033;-78
2022/04/10 05:33:11;;;;;;;0.45;0.32;;;;;;;;;;5001701;28;20129;-78
2022/04/10 05:35:37;;;;;;;0.03;0.03;;;;;;;;;;5000071;28;20069;-78
2022/04/10 05:38:03;;;;;;;0.10;0.10;;;;;;;;;;5000380;28;20038;-78
2022/04/10 05:40:29;;;;;;;0.20;0.20;;;;;;;;;;5001842;28;20034;-78
2022/04/10 05:42:55;;;;;;;0.10;0.10;;;;;;;;;;4999087;28;20041;-79
2022/04/10 05:45:21;;;;;;;0.45;0.45;;;;;;;;;;4999253;28;20050;-78
2022/04/10 05:47:48;;;;;;;0.10;0.10;;;;;;;;;;4999493;28;20883;-78
2022/04/10 05:50:14;;;;;;;0.45;0.45;;;;;;;;;;4999614;28;20112;-78
2022/04/10 05:52:43;;;;;;;0.00;0.00;;;;;;;;;;5003691;28;20033;-80
2022/04/10 05:55:09;;;;;;;0.10;0.10;;;;;;;;;;5003221;28;20030;-78
2022/04/10 05:57:36;;;;;;;0.00;0.00;;;;;;;;;;5002590;28;20462;-78
2022/04/10 06:00:02;;;;;;;0.00;0.00;;;;;;;;;;5002811;28;20550;-79
2022/04/10 06:02:28;;;;;;;0.00;0.00;;;;;;;;;;5002494;28;20057;-79
2022/04/10 06:04:55;;;;;;;0.20;0.20;;;;;;;;;;5003977;28;20038;-78
2022/04/10 06:07:21;;;;;;;0.10;0.10;;;;;;;;;;5003235;28;20056;-80
2022/04/10 06:09:48;;;;;;;0.10;0.10;;;;;;;;;;5001756;28;20107;-79
2022/04/10 06:12:14;;;;;;;0.10;0.10;;;;;;;;;;5003866;28;20120;-80
2022/04/10 06:14:40;;;;;;;0.10;0.10;;;;;;;;;;5003391;28;20105;-79
2022/04/10 06:17:07;;;;;;;0.10;0.05;;;;;;;;;;5004060;28;20828;-79
2022/04/10 06:19:33;;;;;;;0.30;0.30;;;;;;;;;;5005602;28;20030;-79
2022/04/10 06:21:59;;;;;;;0.20;0.20;;;;;;;;;;5000250;28;20107;-79
2022/04/10 06:24:27;;;;;;;1.08;0.90;;;;;;;;;;5002610;28;20498;-79
2022/04/10 06:26:53;;;;;;;0.00;0.00;;;;;;;;;;5002299;28;20045;-79
2022/04/10 06:29:19;;;;;;;0.20;0.20;;;;;;;;;;5002614;28;20033;-79
2022/04/10 06:31:46;;;;;;;0.10;0.10;;;;;;;;;;5002257;28;20061;-79
2022/04/10 06:34:12;;;;;;;1.65;0.43;;;;;;;;;;5035517;28;20485;-80
2022/04/10 06:36:38;;;;;;;0.23;0.23;;;;;;;;;;4999706;28;20064;-84
2022/04/10 06:39:04;;;;;;;0.10;0.10;;;;;;;;;;5000919;28;20084;-78
2022/04/10 06:41:30;;;;;;;0.40;0.40;;;;;;;;;;5016525;28;20026;-79
2022/04/10 06:43:57;;;;;;;0.10;0.10;;;;;;;;;;5003437;28;20045;-79
2022/04/10 06:46:23;;;;;;;0.00;0.00;;;;;;;;;;5003521;28;20038;-79
2022/04/10 06:48:50;;;;;;;0.10;0.10;;;;;;;;;;5001536;28;20057;-79
2022/04/10 06:51:16;;;;;;;0.35;0.35;;;;;;;;;;5001294;28;20582;-78
2022/04/10 06:53:43;;;;;;;0.20;0.20;;;;;;;;;;5002355;28;20374;-78
2022/04/10 06:56:09;;;;;;;0.00;0.00;;;;;;;;;;4986297;28;20044;-79
2022/04/10 06:58:35;;;;;;;0.05;0.05;;;;;;;;;;5005314;28;20025;-79
2022/04/10 07:01:01;;;;;;;0.10;0.10;;;;;;;;;;5001420;28;20049;-79
2022/04/10 07:03:27;;;;;;;0.32;0.32;;;;;;;;;;5001530;28;20022;-80
2022/04/10 07:05:53;;;;;;;0.10;0.10;;;;;;;;;;5001605;28;20049;-79
2022/04/10 07:08:21;;;;;;;0.52;0.52;;;;;;;;;;5001293;28;20281;-78
2022/04/10 07:10:47;;;;;;;0.10;0.08;;;;;;;;;;5003658;28;20079;-79
2022/04/10 07:13:19;;;;;;;0.10;0.10;;;;;;;;;;5003613;28;20034;-78
2022/04/10 07:15:46;;;;;;;0.28;0.28;;;;;;;;;;5000891;28;20030;-79
2022/04/10 07:18:12;;;;;;;1.20;0.38;;;;;;;;;;5007676;28;20639;-81
2022/04/10 07:20:38;;;;;;;2.13;1.08;;;;;;;;;;5016572;28;20042;-80
2022/04/10 07:25:49;;;;;;;0.10;0.10;;;;;;;;;;5018447;28;20129;-78
2022/04/10 07:28:16;;;;;;;0.17;0.17;;;;;;;;;;5016556;28;20481;-78
2022/04/10 07:30:42;;;;;;;0.00;0.00;;;;;;;;;;5013169;28;20727;-79
2022/04/10 07:33:08;;;;;;;0.00;0.00;;;;;;;;;;5015450;28;20033;-80
2022/04/10 07:35:35;;;;;;;0.65;0.38;;;;;;;;;;5014015;28;20065;-81
2022/04/10 07:38:01;;;;;;;2.45;0.38;;;;;;;;;;5018532;28;20038;-78
2022/04/10 07:40:27;;;;;;;0.23;0.23;;;;;;;;;;5049696;28;20473;-79
2022/04/10 07:42:53;;;;;;;0.00;0.00;;;;;;;;;;5014576;28;20291;-79
2022/04/10 07:48:04;;;;;;;0.00;0.00;;;;;;;;;;5014181;28;20533;-79
2022/04/10 07:50:30;;;;;;;0.30;0.15;;;;;;;;;;5016241;28;20025;-79
2022/04/10 07:52:56;;;;;;;0.17;0.17;;;;;;;;;;5044928;28;20517;-79
2022/04/10 07:55:25;;;;;;;0.73;0.27;;;;;;;;;;5017334;28;20533;-79
2022/04/10 07:57:51;;;;;;;0.65;0.65;;;;;;;;;;5013426;28;20276;-80
2022/04/10 08:00:17;;;;;;;0.00;0.00;;;;;;;;;;5012033;28;20029;-79
2022/04/10 08:02:46;;;;;;;0.00;0.00;;;;;;;;;;5013939;28;20465;-79
2022/04/10 08:05:12;;;;;;;0.22;0.20;;;;;;;;;;5015126;28;20491;-79
2022/04/10 08:07:38;;;;;;;0.00;0.00;;;;;;;;;;5003939;28;20030;-79
2022/04/10 08:10:04;;;;;;;0.08;0.08;;;;;;;;;;5000230;28;20101;-79
2022/04/10 08:12:30;;;;;;;0.00;0.00;;;;;;;;;;5000163;28;20033;-79
2022/04/10 08:14:56;;;;;;;0.00;0.00;;;;;;;;;;5012601;28;20030;-79
2022/04/10 08:17:22;;;;;;;0.00;0.00;;;;;;;;;;5016005;28;20034;-80
2022/04/10 08:19:48;;;;;;;0.00;0.00;;;;;;;;;;5020546;28;20276;-80
2022/04/10 08:22:14;;;;;;;0.00;0.00;;;;;;;;;;5016598;28;20029;-80
2022/04/10 08:24:40;;;;;;;0.00;0.00;;;;;;;;;;5030216;28;20037;-79
2022/04/10 08:27:06;;;;;;;0.10;0.08;;;;;;;;;;5014957;28;20060;-79
2022/04/10 08:29:33;;;;;;;0.00;0.00;;;;;;;;;;5016094;28;20648;-79
2022/04/10 08:31:59;;;;;;;;;;;;;;;;;;5018371;28;20033;-79
2022/04/10 08:34:25;;;;;;;0.10;0.10;;;;;;;;;;5019674;28;19909;-78
2022/04/10 08:36:51;;;;;;;0.17;0.15;;;;;;;;;;5014847;28;20037;-78
2022/04/10 08:39:17;;;;;;;0.00;0.00;;;;;;;;;;5008328;28;20036;-79
2022/04/10 08:41:46;;;;;;;0.00;0.00;;;;;;;;;;5014742;28;20034;-79
2022/04/10 08:44:12;;;;;;;0.00;0.00;;;;;;;;;;5009977;28;20041;-79
2022/04/10 08:46:39;;;;;;;0.00;0.00;;;;;;;;;;5017718;28;20051;-79
2022/04/10 08:49:06;;;;;;;0.22;0.22;;;;;;;;;;5030364;28;20577;-79
2022/04/10 08:51:32;;;;;;;;;;;;;;;;;;5015295;28;20033;-78
2022/04/10 08:54:00;;;;;;;0.00;0.00;;;;;;;;;;5029482;28;19962;-79
2022/04/10 08:56:26;;;;;;;0.03;0.03;;;;;;;;;;5012211;28;20092;-79
2022/04/10 08:58:52;;;;;;;0.03;0.03;;;;;;;;;;5017932;28;20402;-78
2022/04/10 09:01:22;;;;;;;0.40;0.40;;;;;;;;;;5013578;28;20576;-80
2022/04/10 09:03:48;;;;;;;0.38;0.38;;;;;;;;;;5008744;28;20033;-80
2022/04/10 09:06:14;;;;;;;0.00;0.00;;;;;;;;;;5011314;28;20061;-80
2022/04/10 09:08:40;;;;;;;0.00;0.00;;;;;;;;;;5014026;28;20021;-82
2022/04/10 09:11:10;;;;;;;0.15;0.03;;;;;;;;;;5015960;28;20049;-80
2022/04/10 09:13:37;;;;;;;0.10;0.10;;;;;;;;;;5019824;28;20017;-80
2022/04/10 09:16:09;;;;;;;0.00;0.00;;;;;;;;;;5012183;28;20107;-81
2022/04/10 09:18:54;;;;;;;0.00;0.00;;;;;;;;;;5013584;28;20029;-80
2022/04/10 09:21:33;;;;;;;0.00;0.00;;;;;;;;;;5013056;28;20125;-79
2022/04/10 09:24:09;;;;;;;0.00;0.00;;;;;;;;;;5010266;28;20502;-79
2022/04/10 09:26:44;;;;;;;0.00;0.00;;;;;;;;;;5014292;28;20067;-79
2022/04/10 09:29:11;;;;;;;1.55;0.80;;;;;;;;;;5018027;28;20030;-80
2022/04/10 09:31:37;;;;;;;;;;;;;;;;;;5023186;28;20081;-79
2022/04/10 09:34:06;;;;;;;0.00;0.00;;;;;;;;;;5014610;28;20085;-79
2022/04/10 09:36:36;;;;;;;0.00;0.00;;;;;;;;;;5012494;28;20030;-78
2022/04/10 09:39:25;;;;;;;0.00;0.00;;;;;;;;;;5001649;28;20029;-78
2022/04/10 09:42:01;;;;;;;0.00;0.00;;;;;;;;;;5021382;28;20041;-79
2022/04/10 09:44:32;;;;;;;0.00;0.00;;;;;;;;;;5033890;28;20761;-79
2022/04/10 09:46:59;;;;;;;2.35;0.35;;;;;;;;;;5015371;28;20135;-79
2022/04/10 09:49:30;;;;;;;0.00;0.00;;;;;;;;;;5021507;28;20055;-78
2022/04/10 09:51:59;;;;;;;0.00;0.00;;;;;;;;;;5012666;28;20507;-79
2022/04/10 09:54:25;;;;;;;0.00;0.00;;;;;;;;;;5016848;28;20117;-79
2022/04/10 09:56:51;;;;;;;0.90;0.47;;;;;;;;;;5019315;28;20515;-78
2022/04/10 09:59:19;;;;;;;0.10;0.10;;;;;;;;;;5018606;28;20046;-79
2022/04/10 10:01:45;;;;;;;0.00;0.00;;;;;;;;;;5021479;28;20116;-78
2022/04/10 10:04:11;;;;;;;0.00;0.00;;;;;;;;;;5016491;28;20116;-80
2022/04/10 10:06:38;;;;;;;0.05;0.05;;;;;;;;;;5016745;28;20034;-79
2022/04/10 10:09:04;;;;;;;0.00;0.00;;;;;;;;;;5009827;28;20045;-79
2022/04/10 10:11:30;;;;;;;0.52;0.38;;;;;;;;;;5008913;28;20033;-81
2022/04/10 10:13:57;;;;;;;1.00;0.20;;;;;;;;;;5036674;28;20042;-80
2022/04/10 10:16:23;;;;;;;0.10;0.10;;;;;;;;;;5004920;28;20034;-80
2022/04/10 10:18:49;;;;;;;0.00;0.00;;;;;;;;;;5006785;28;20037;-81
2022/04/10 10:21:15;;;;;;;0.00;0.00;;;;;;;;;;5006806;28;20022;-80
2022/04/10 10:23:42;;;;;;;0.10;0.10;;;;;;;;;;5007867;28;20038;-80
2022/04/10 10:26:08;;;;;;;0.82;0.82;;;;;;;;;;5002548;28;20076;-79
2022/04/10 10:28:41;;;;;;;0.70;0.52;;;;;;;;;;5008283;28;20033;-79
2022/04/10 10:31:13;;;;;;;0.20;0.20;;;;;;;;;;5002971;28;20770;-80
2022/04/10 10:33:40;;;;;;;0.00;0.00;;;;;;;;;;5010821;28;20240;-79
2022/04/10 10:36:09;;;;;;;0.63;0.63;;;;;;;;;;5019067;28;20037;-79
2022/04/10 10:38:35;;;;;;;0.00;0.00;;;;;;;;;;5032930;28;20033;-79
2022/04/10 10:41:17;;;;;;;0.00;0.00;;;;;;;;;;5019698;28;20138;-80
2022/04/10 10:43:43;;;;;;;0.10;0.10;;;;;;;;;;5015577;28;20569;-80
2022/04/10 10:46:23;;;;;;;0.08;0.08;;;;;;;;;;5007518;28;20044;-80
2022/04/10 10:48:50;;;;;;;0.20;0.20;;;;;;;;;;5000787;28;20449;-81
2022/04/10 10:51:18;;;;;;;0.03;0.03;;;;;;;;;;5000942;28;20891;-81
2022/04/10 10:53:47;;;;;;;0.08;0.08;;;;;;;;;;5002555;28;20029;-80
2022/04/10 10:56:32;;;;;;;0.10;0.10;;;;;;;;;;5001385;28;20029;-81
2022/04/10 10:59:21;;;;;;;0.30;0.30;;;;;;;;;;5002618;28;20029;-81
2022/04/10 11:02:00;;;;;;;0.20;0.20;;;;;;;;;;5032077;28;20434;-80
2022/04/10 11:04:30;;;;;;;0.00;0.00;;;;;;;;;;5033922;28;20025;-81
2022/04/10 11:07:09;;;;;;;0.10;0.10;;;;;;;;;;5001025;28;20128;-80
2022/04/10 11:09:35;;;;;;;0.00;0.00;;;;;;;;;;5000614;28;20092;-80
2022/04/10 11:12:02;;;;;;;0.00;0.00;;;;;;;;;;5001027;28;20494;-79
2022/04/10 11:14:32;;;;;;;0.00;0.00;;;;;;;;;;5013594;28;20030;-80
2022/04/10 11:17:19;;;;;;;0.05;0.05;;;;;;;;;;5011233;28;20041;-80
2022/04/10 11:20:05;;;;;;;0.00;0.00;;;;;;;;;;5021627;28;20086;-80
2022/04/10 11:22:33;;;;;;;0.35;0.10;;;;;;;;;;5012572;28;20048;-80
2022/04/10 11:24:59;;;;;;;0.00;0.00;;;;;;;;;;5007891;28;20042;-79
2022/04/10 11:27:45;;;;;;;0.00;0.00;;;;;;;;;;5010921;28;20040;-80
2022/04/10 11:30:13;;;;;;;0.00;0.00;;;;;;;;;;5009904;28;20034;-80
2022/04/10 11:32:45;;;;;;;0.00;0.00;;;;;;;;;;5012833;28;20029;-80
2022/04/10 11:35:15;;;;;;;0.63;0.57;;;;;;;;;;5010640;28;20088;-80
2022/04/10 11:37:44;;;;;;;0.10;0.10;;;;;;;;;;5012050;28;20030;-80
2022/04/10 11:40:11;;;;;;;0.40;0.40;;;;;;;;;;5011141;28;20037;-81
2022/04/10 11:42:37;;;;;;;;;;;;;;;;;;5007264;28;20033;-80
2022/04/10 11:45:03;;;;;;;0.03;0.03;;;;;;;;;;5012601;28;20967;-81
2022/04/10 11:47:29;;;;;;;10.90;0.52;;;;;;;;;;5014235;28;20069;-81
2022/04/10 11:49:57;;;;;;;0.10;0.10;;;;;;;;;;5025709;28;20034;-81
2022/04/10 11:52:23;;;;;;;0.00;0.00;;;;;;;;;;5012714;28;20060;-82
2022/04/10 11:54:52;;;;;;;0.00;0.00;;;;;;;;;;5008628;28;20047;-79
2022/04/10 11:57:19;;;;;;;0.00;0.00;;;;;;;;;;5006260;28;20041;-81
2022/04/10 11:59:45;;;;;;;0.00;0.00;;;;;;;;;;5008064;28;20145;-81
2022/04/10 12:02:12;;;;;;;0.00;0.00;;;;;;;;;;5007884;28;20064;-81
2022/04/10 12:04:39;;;;;;;0.10;0.10;;;;;;;;;;5033379;28;20109;-81
2022/04/10 12:07:12;;;;;;;0.05;0.05;;;;;;;;;;5006002;28;20128;-80
2022/04/10 12:09:38;;;;;;;0.00;0.00;;;;;;;;;;5007934;28;20018;-80
2022/04/10 12:12:05;;;;;;;0.00;0.00;;;;;;;;;;5004415;28;20045;-80
2022/04/10 12:14:31;;;;;;;0.22;0.22;;;;;;;;;;5001199;28;20749;-80
2022/04/10 12:16:57;;;;;;;0.00;0.00;;;;;;;;;;5007480;28;20025;-81
2022/04/10 12:19:30;;;;;;;0.10;0.10;;;;;;;;;;5001704;28;20609;-81
2022/04/10 12:21:56;;;;;;;0.20;0.20;;;;;;;;;;5015057;28;20055;-80
2022/04/10 12:24:22;;;;;;;0.10;0.10;;;;;;;;;;5014828;28;20120;-80
2022/04/10 12:26:49;;;;;;;0.00;0.00;;;;;;;;;;5016887;28;20033;-80
2022/04/10 12:29:17;;;;;;;0.00;0.00;;;;;;;;;;5016319;28;20026;-80
2022/04/10 12:31:43;;;;;;;0.10;0.10;;;;;;;;;;5019817;28;20121;-81
2022/04/10 12:34:10;;;;;;;0.15;0.15;;;;;;;;;;5014553;28;20029;-81
2022/04/10 12:36:36;;;;;;;;;;;;;;;;;;5012874;28;20044;-80
2022/04/10 12:39:03;;;;;;;0.00;0.00;;;;;;;;;;5014150;28;19913;-80
2022/04/10 12:41:30;;;;;;;0.00;0.00;;;;;;;;;;5017727;28;20041;-80
2022/04/10 12:44:03;;;;;;;0.00;0.00;;;;;;;;;;5018386;28;20036;-80
2022/04/10 12:46:35;;;;;;;0.00;0.00;;;;;;;;;;5014085;28;20042;-81
2022/04/10 12:49:09;;;;;;;0.00;0.00;;;;;;;;;;5012069;28;20498;-80
2022/04/10 12:51:35;;;;;;;0.00;0.00;;;;;;;;;;5012664;28;20801;-81
2022/04/10 12:54:01;;;;;;;0.00;0.00;;;;;;;;;;5010488;28;20034;-81
2022/04/10 12:56:32;;;;;;;0.00;0.00;;;;;;;;;;5009461;28;20060;-81
2022/04/10 12:58:58;;;;;;;0.03;0.03;;;;;;;;;;5008691;28;20452;-81
2022/04/10 13:01:28;;;;;;;0.20;0.20;;;;;;;;;;5012093;28;20048;-81
2022/04/10 13:03:54;;;;;;;0.03;0.03;;;;;;;;;;5009862;28;20671;-81
2022/04/10 13:06:25;;;;;;;0.03;0.03;;;;;;;;;;5017920;28;20534;-82
2022/04/10 13:08:51;;;;;;;0.00;0.00;;;;;;;;;;5013285;28;20037;-82
2022/04/10 13:11:17;;;;;;;0.00;0.00;;;;;;;;;;5014432;28;20034;-82
2022/04/10 13:13:56;;;;;;;0.20;0.20;;;;;;;;;;5023293;28;20276;-81
2022/04/10 13:16:26;;;;;;;0.00;0.00;;;;;;;;;;5020184;28;20175;-81
2022/04/10 13:18:52;;;;;;;1.88;0.35;;;;;;;;;;5015835;28;20037;-80
2022/04/10 13:21:18;;;;;;;0.80;0.60;;;;;;;;;;5015609;28;20033;-81
2022/04/10 13:23:44;;;;;;;0.30;0.30;;;;;;;;;;5015590;28;20032;-85
2022/04/10 13:26:10;;;;;;;0.00;0.00;;;;;;;;;;5015815;28;20526;-81
2022/04/10 13:28:36;;;;;;;0.07;0.07;;;;;;;;;;5014737;28;20406;-81
2022/04/10 13:31:02;;;;;;;0.10;0.10;;;;;;;;;;5015692;28;20029;-82
2022/04/10 13:33:29;;;;;;;0.00;0.00;;;;;;;;;;5050687;28;20029;-83
2022/04/10 13:35:55;;;;;;;0.00;0.00;;;;;;;;;;5019281;28;20283;-82
2022/04/10 13:38:21;;;;;;;0.00;0.00;;;;;;;;;;5020437;28;20600;-81
2022/04/10 13:40:47;;;;;;;0.10;0.10;;;;;;;;;;5022908;28;20021;-81
2022/04/10 13:43:13;;;;;;;0.00;0.00;;;;;;;;;;5018443;28;20257;-82
2022/04/10 13:45:39;;;;;;;0.10;0.10;;;;;;;;;;5017653;28;20064;-81
2022/04/10 13:48:05;;;;;;;0.10;0.10;;;;;;;;;;5015958;28;20104;-81
2022/04/10 13:50:31;;;;;;;0.00;0.00;;;;;;;;;;5016168;28;20084;-82
2022/04/10 13:52:57;;;;;;;0.13;0.13;;;;;;;;;;5038088;28;20033;-83
2022/04/10 13:55:24;;;;;;;0.17;0.10;;;;;;;;;;5012093;28;20072;-83
2022/04/10 13:57:50;;;;;;;0.13;0.13;;;;;;;;;;5015785;28;20036;-82
2022/04/10 14:00:16;;;;;;;0.00;0.00;;;;;;;;;;5032342;28;20056;-83
2022/04/10 14:02:42;;;;;;;0.13;0.13;;;;;;;;;;5019280;28;20032;-83
2022/04/10 14:05:08;;;;;;;0.00;0.00;;;;;;;;;;5018815;28;20058;-82
2022/04/10 14:07:35;;;;;;;0.10;0.10;;;;;;;;;;5022337;28;20121;-81
2022/04/10 14:10:01;;;;;;;0.00;0.00;;;;;;;;;;5017992;28;20105;-82
2022/04/10 14:12:28;;;;;;;0.20;0.20;;;;;;;;;;5016996;28;20056;-81
2022/04/10 14:14:56;;;;;;;0.10;0.10;;;;;;;;;;5016759;28;20057;-81
2022/04/10 14:17:22;;;;;;;0.00;0.00;;;;;;;;;;5016021;28;20037;-81
2022/04/10 14:19:48;;;;;;;0.35;0.35;;;;;;;;;;5021906;28;20060;-80
2022/04/10 14:22:14;;;;;;;0.00;0.00;;;;;;;;;;5015987;28;20033;-81
2022/04/10 14:24:40;;;;;;;5.13;0.67;;;;;;;;;;5015169;28;20037;-83
2022/04/10 14:27:06;;;;;;;0.00;0.00;;;;;;;;;;5017312;28;20645;-81
2022/04/10 14:29:35;;;;;;;0.00;0.00;;;;;;;;;;5017515;28;20032;-81
2022/04/10 14:32:02;;;;;;;0.03;0.03;;;;;;;;;;5021984;28;20060;-82
2022/04/10 14:34:30;;;;;;;0.00;0.00;;;;;;;;;;5007188;28;20855;-80
2022/04/10 14:36:56;;;;;;;0.10;0.10;;;;;;;;;;5002578;28;20037;-81
2022/04/10 14:39:22;;;;;;;0.00;0.00;;;;;;;;;;5002615;28;20026;-80
2022/04/10 14:41:48;;;;;;;0.30;0.30;;;;;;;;;;5002426;28;20041;-86
2022/04/10 14:44:15;;;;;;;0.10;0.10;;;;;;;;;;5015609;28;20060;-82
2022/04/10 14:46:41;;;;;;;0.00;0.00;;;;;;;;;;5020357;28;20407;-81
2022/04/10 14:49:07;;;;;;;0.00;0.00;;;;;;;;;;5023486;28;20031;-80
2022/04/10 14:51:34;;;;;;;0.00;0.00;;;;;;;;;;5015552;28;20034;-81